Impacts TAF Board
For situational awareness. Not to be used for flight planning purposes.
IDs:

KPHL - Philadelphia Intl, PA, US

Issued at 2107 UTC 19 Jan 2019
Updated at 2221 UTC 19 Jan 2019
Potential Impact None Slight Moderate High
Time2154Z 19/23Z 20/00Z 20/01Z 20/02Z 20/03Z 20/04Z 20/05Z 20/06Z 20/07Z 20/08Z 20/09Z 20/10Z 20/11Z>>
Type OBS PRVL PRVL
  [TEMP]  
PRVL
  [TEMP]  
PRVL PRVL PRVL PRVL PRVL PRVL PRVL PRVL PRVL PRVL
VIS 10 >6 5
  [3]  
5
  [3]  
3 3 3 2 2 2 2 2 2 2
CIG 40 40 25
  [15]  
25
  [15]  
12 12 12 5 5 5 5 5 5 5
Cover OVC OVC OVC
  [OVC]  
OVC
  [OVC]  
OVC OVC OVC OVC OVC OVC OVC OVC OVC OVC
FltCat VFR VFR MVFR
  [MVFR]  
MVFR
  [MVFR]  
MVFR MVFR MVFR IFR IFR IFR IFR IFR IFR IFR
WX -- -- -RA
  [-SN -RA]  
-RA
  [-SN -RA]  
-RA -RA -RA RA RA RA RA RA RA RA
WDir 70 80 90
[90]
90
[90]
100 100 100 120 120 120 120 120 200 200
WSpd 6 8 8
  [8]  
8
  [8]  
10 10 10 10 10 10 10 10 10 10
WGst -- -- --
  [--]  
--
  [--]  
-- -- -- -- -- -- -- -- -- --
Raw TAF
KPHL 192107Z 1921/2024 08008KT P6SM SCT025 OVC040
  FM200000 09008KT 5SM -RA OVC025
  TEMPO 2000/2002 3SM -SNRA OVC015
  FM200200 10010KT 3SM -RA OVC012
  FM200500 12010KT 2SM RA OVC005 WS020/17045KT
  FM201000 20010KT 2SM RA OVC005 WS020/18045KT
  FM201600 30017G27KT P6SM OVC010
  FM202000 32020G32KT P6SM BKN050


Raw METAR
KPHL 192154Z 07006KT 10SM OVC040 03/M03 A3008 RMK AO2 SLP187 T00281028
KPHL 192054Z 07006KT 10SM OVC047 03/M03 A3011 RMK AO2 SLP197 T00281033 56025
KPHL 191954Z 06005KT 10SM OVC048 03/M03 A3013 RMK AO2 SLP202 T00281033

METAR Board
Radar Display
Forecast Discussion
For situational awareness. Not to be used for flight planning purposes.